sensor_id;sensor_type;location;lat;lon;timestamp;temperature;humidity
15131;DHT22;7666;50.920;4.628;2023-05-07T00:01:57;15.40;99.90
15131;DHT22;7666;50.920;4.628;2023-05-07T00:04:43;15.40;99.90
15131;DHT22;7666;50.920;4.628;2023-05-07T00:07:29;15.40;99.90
15131;DHT22;7666;50.920;4.628;2023-05-07T00:10:15;15.40;99.90
15131;DHT22;7666;50.920;4.628;2023-05-07T00:13:01;15.40;99.90
15131;DHT22;7666;50.920;4.628;2023-05-07T00:15:47;15.40;99.90
15131;DHT22;7666;50.920;4.628;2023-05-07T00:18:33;15.40;99.90
15131;DHT22;7666;50.920;4.628;2023-05-07T00:21:19;15.30;99.90
15131;DHT22;7666;50.920;4.628;2023-05-07T00:24:07;15.30;99.90
15131;DHT22;7666;50.920;4.628;2023-05-07T00:26:53;15.30;99.90
15131;DHT22;7666;50.920;4.628;2023-05-07T00:29:39;15.30;99.90
15131;DHT22;7666;50.920;4.628;2023-05-07T00:32:25;15.20;99.90
15131;DHT22;7666;50.920;4.628;2023-05-07T00:35:11;15.20;99.90
15131;DHT22;7666;50.920;4.628;2023-05-07T00:37:57;15.00;99.90
15131;DHT22;7666;50.920;4.628;2023-05-07T00:40:43;15.00;99.90
15131;DHT22;7666;50.920;4.628;2023-05-07T00:43:29;14.90;99.90
15131;DHT22;7666;50.920;4.628;2023-05-07T00:46:15;14.80;99.90
15131;DHT22;7666;50.920;4.628;2023-05-07T00:49:02;14.80;99.90
15131;DHT22;7666;50.920;4.628;2023-05-07T00:51:48;14.70;99.90
15131;DHT22;7666;50.920;4.628;2023-05-07T00:54:35;14.60;99.90
15131;DHT22;7666;50.920;4.628;2023-05-07T00:57:21;14.60;99.90
15131;DHT22;7666;50.920;4.628;2023-05-07T01:00:10;14.50;99.90
15131;DHT22;7666;50.920;4.628;2023-05-07T01:02:57;14.50;99.90
15131;DHT22;7666;50.920;4.628;2023-05-07T01:05:45;14.50;99.90
15131;DHT22;7666;50.920;4.628;2023-05-07T01:08:32;14.60;99.90
15131;DHT22;7666;50.920;4.628;2023-05-07T01:11:20;14.70;99.90
15131;DHT22;7666;50.920;4.628;2023-05-07T01:14:07;14.90;99.90
15131;DHT22;7666;50.920;4.628;2023-05-07T01:16:54;15.00;99.90
15131;DHT22;7666;50.920;4.628;2023-05-07T01:19:40;15.00;99.90
15131;DHT22;7666;50.920;4.628;2023-05-07T01:22:37;15.10;99.90
15131;DHT22;7666;50.920;4.628;2023-05-07T01:25:23;15.10;99.90
15131;DHT22;7666;50.920;4.628;2023-05-07T01:28:09;15.10;99.90
15131;DHT22;7666;50.920;4.628;2023-05-07T01:31:00;15.20;99.90
15131;DHT22;7666;50.920;4.628;2023-05-07T01:33:48;15.10;99.90
15131;DHT22;7666;50.920;4.628;2023-05-07T01:36:37;15.00;99.90
15131;DHT22;7666;50.920;4.628;2023-05-07T01:39:29;14.90;99.90
15131;DHT22;7666;50.920;4.628;2023-05-07T01:42:15;14.90;99.90
15131;DHT22;7666;50.920;4.628;2023-05-07T01:45:02;14.90;99.90
15131;DHT22;7666;50.920;4.628;2023-05-07T01:47:48;14.90;99.90
15131;DHT22;7666;50.920;4.628;2023-05-07T01:50:35;14.90;99.90
15131;DHT22;7666;50.920;4.628;2023-05-07T01:53:22;14.90;99.90
15131;DHT22;7666;50.920;4.628;2023-05-07T01:56:08;14.70;99.90
15131;DHT22;7666;50.920;4.628;2023-05-07T01:58:54;14.70;99.90
15131;DHT22;7666;50.920;4.628;2023-05-07T02:01:40;14.70;99.90
15131;DHT22;7666;50.920;4.628;2023-05-07T02:04:26;14.70;99.90
15131;DHT22;7666;50.920;4.628;2023-05-07T02:07:12;14.60;99.90
15131;DHT22;7666;50.920;4.628;2023-05-07T02:09:58;14.50;99.90
15131;DHT22;7666;50.920;4.628;2023-05-07T02:12:44;14.60;99.90
15131;DHT22;7666;50.920;4.628;2023-05-07T02:15:30;14.60;99.90
15131;DHT22;7666;50.920;4.628;2023-05-07T02:18:16;14.50;99.90
15131;DHT22;7666;50.920;4.628;2023-05-07T02:21:03;14.50;99.90
15131;DHT22;7666;50.920;4.628;2023-05-07T02:23:49;14.50;99.90
15131;DHT22;7666;50.920;4.628;2023-05-07T02:26:34;14.50;99.90
15131;DHT22;7666;50.920;4.628;2023-05-07T02:29:21;14.50;99.90
15131;DHT22;7666;50.920;4.628;2023-05-07T02:32:06;14.40;99.90
15131;DHT22;7666;50.920;4.628;2023-05-07T02:34:52;14.40;99.90
15131;DHT22;7666;50.920;4.628;2023-05-07T02:37:39;14.50;99.90
15131;DHT22;7666;50.920;4.628;2023-05-07T02:40:25;14.50;99.90
15131;DHT22;7666;50.920;4.628;2023-05-07T02:43:11;14.60;99.90
15131;DHT22;7666;50.920;4.628;2023-05-07T02:46:07;14.70;99.90
15131;DHT22;7666;50.920;4.628;2023-05-07T02:48:53;14.80;99.90
15131;DHT22;7666;50.920;4.628;2023-05-07T02:51:39;14.80;99.90
15131;DHT22;7666;50.920;4.628;2023-05-07T02:54:25;14.80;99.90
15131;DHT22;7666;50.920;4.628;2023-05-07T02:57:11;14.90;99.90
15131;DHT22;7666;50.920;4.628;2023-05-07T02:59:58;14.90;99.90
15131;DHT22;7666;50.920;4.628;2023-05-07T03:02:45;14.90;99.90
15131;DHT22;7666;50.920;4.628;2023-05-07T03:05:31;14.90;99.90
15131;DHT22;7666;50.920;4.628;2023-05-07T03:08:17;14.90;99.90
15131;DHT22;7666;50.920;4.628;2023-05-07T03:11:03;14.90;99.90
15131;DHT22;7666;50.920;4.628;2023-05-07T03:13:49;14.80;99.90
15131;DHT22;7666;50.920;4.628;2023-05-07T03:16:35;14.80;99.90
15131;DHT22;7666;50.920;4.628;2023-05-07T03:19:21;14.90;99.90
15131;DHT22;7666;50.920;4.628;2023-05-07T03:22:07;14.90;99.90
15131;DHT22;7666;50.920;4.628;2023-05-07T03:24:53;14.90;99.90
15131;DHT22;7666;50.920;4.628;2023-05-07T03:27:40;14.90;99.90
15131;DHT22;7666;50.920;4.628;2023-05-07T03:30:27;14.90;99.90
15131;DHT22;7666;50.920;4.628;2023-05-07T03:33:13;14.90;99.90
15131;DHT22;7666;50.920;4.628;2023-05-07T03:35:59;15.00;99.90
15131;DHT22;7666;50.920;4.628;2023-05-07T03:38:45;14.90;99.90
15131;DHT22;7666;50.920;4.628;2023-05-07T03:41:32;14.90;99.90
15131;DHT22;7666;50.920;4.628;2023-05-07T03:44:18;14.90;99.90
15131;DHT22;7666;50.920;4.628;2023-05-07T03:47:04;14.90;99.90
15131;DHT22;7666;50.920;4.628;2023-05-07T03:49:50;14.80;99.90
15131;DHT22;7666;50.920;4.628;2023-05-07T03:52:38;14.70;99.90
15131;DHT22;7666;50.920;4.628;2023-05-07T03:55:24;14.60;99.90
15131;DHT22;7666;50.920;4.628;2023-05-07T03:58:11;14.50;99.90
15131;DHT22;7666;50.920;4.628;2023-05-07T04:00:57;14.60;99.90
15131;DHT22;7666;50.920;4.628;2023-05-07T04:03:43;14.60;99.90
15131;DHT22;7666;50.920;4.628;2023-05-07T04:06:28;14.70;99.90
15131;DHT22;7666;50.920;4.628;2023-05-07T04:09:14;14.60;99.90
15131;DHT22;7666;50.920;4.628;2023-05-07T04:12:00;14.60;99.90
15131;DHT22;7666;50.920;4.628;2023-05-07T04:14:47;14.70;99.90
15131;DHT22;7666;50.920;4.628;2023-05-07T04:17:33;14.70;99.90
15131;DHT22;7666;50.920;4.628;2023-05-07T04:20:19;14.80;99.90
15131;DHT22;7666;50.920;4.628;2023-05-07T04:23:05;14.90;99.90
15131;DHT22;7666;50.920;4.628;2023-05-07T04:25:51;14.90;99.90
15131;DHT22;7666;50.920;4.628;2023-05-07T04:28:38;14.90;99.90
15131;DHT22;7666;50.920;4.628;2023-05-07T04:31:24;14.90;99.90
15131;DHT22;7666;50.920;4.628;2023-05-07T04:34:11;14.90;99.90
15131;DHT22;7666;50.920;4.628;2023-05-07T04:36:59;15.00;99.90
15131;DHT22;7666;50.920;4.628;2023-05-07T04:39:45;14.90;99.90
15131;DHT22;7666;50.920;4.628;2023-05-07T04:42:31;14.80;99.90
15131;DHT22;7666;50.920;4.628;2023-05-07T04:45:17;14.70;99.90
15131;DHT22;7666;50.920;4.628;2023-05-07T04:48:04;14.60;99.90
15131;DHT22;7666;50.920;4.628;2023-05-07T04:50:50;14.50;99.90
15131;DHT22;7666;50.920;4.628;2023-05-07T04:53:37;14.50;99.90
15131;DHT22;7666;50.920;4.628;2023-05-07T04:56:23;14.60;99.90
15131;DHT22;7666;50.920;4.628;2023-05-07T04:59:09;14.60;99.90
15131;DHT22;7666;50.920;4.628;2023-05-07T05:01:55;14.60;99.90
15131;DHT22;7666;50.920;4.628;2023-05-07T05:04:41;14.60;99.90
15131;DHT22;7666;50.920;4.628;2023-05-07T05:07:27;14.70;99.90
15131;DHT22;7666;50.920;4.628;2023-05-07T05:10:14;14.80;99.90
15131;DHT22;7666;50.920;4.628;2023-05-07T05:13:00;14.80;99.90
15131;DHT22;7666;50.920;4.628;2023-05-07T05:15:46;14.90;99.90
15131;DHT22;7666;50.920;4.628;2023-05-07T05:18:33;14.90;99.90
15131;DHT22;7666;50.920;4.628;2023-05-07T05:21:18;15.00;99.90
15131;DHT22;7666;50.920;4.628;2023-05-07T05:24:05;15.00;99.90
15131;DHT22;7666;50.920;4.628;2023-05-07T05:26:53;15.20;99.90
15131;DHT22;7666;50.920;4.628;2023-05-07T05:29:39;15.30;99.90
15131;DHT22;7666;50.920;4.628;2023-05-07T05:32:25;15.30;99.90
15131;DHT22;7666;50.920;4.628;2023-05-07T05:35:11;15.30;99.90
15131;DHT22;7666;50.920;4.628;2023-05-07T05:37:57;15.30;99.90
15131;DHT22;7666;50.920;4.628;2023-05-07T05:40:43;15.30;99.90
15131;DHT22;7666;50.920;4.628;2023-05-07T05:43:29;15.50;99.90
15131;DHT22;7666;50.920;4.628;2023-05-07T05:46:15;15.60;99.90
15131;DHT22;7666;50.920;4.628;2023-05-07T05:49:01;15.80;99.90
15131;DHT22;7666;50.920;4.628;2023-05-07T05:51:47;15.80;99.90
15131;DHT22;7666;50.920;4.628;2023-05-07T05:54:33;15.90;99.90
15131;DHT22;7666;50.920;4.628;2023-05-07T05:57:19;16.00;99.90
15131;DHT22;7666;50.920;4.628;2023-05-07T06:00:06;16.00;99.90
15131;DHT22;7666;50.920;4.628;2023-05-07T06:02:53;16.10;99.90
15131;DHT22;7666;50.920;4.628;2023-05-07T06:05:39;16.20;99.90
15131;DHT22;7666;50.920;4.628;2023-05-07T06:08:28;16.30;99.90
15131;DHT22;7666;50.920;4.628;2023-05-07T06:11:15;16.40;99.90
15131;DHT22;7666;50.920;4.628;2023-05-07T06:14:01;16.40;99.90
15131;DHT22;7666;50.920;4.628;2023-05-07T06:16:47;16.50;99.90
15131;DHT22;7666;50.920;4.628;2023-05-07T06:19:32;16.60;99.90
15131;DHT22;7666;50.920;4.628;2023-05-07T06:22:19;16.60;99.90
15131;DHT22;7666;50.920;4.628;2023-05-07T06:25:05;16.70;99.90
15131;DHT22;7666;50.920;4.628;2023-05-07T06:27:51;16.70;99.90
15131;DHT22;7666;50.920;4.628;2023-05-07T06:30:37;16.70;99.90
15131;DHT22;7666;50.920;4.628;2023-05-07T06:33:23;16.70;99.90
15131;DHT22;7666;50.920;4.628;2023-05-07T06:36:09;16.70;99.90
15131;DHT22;7666;50.920;4.628;2023-05-07T06:38:55;16.60;99.90
15131;DHT22;7666;50.920;4.628;2023-05-07T06:41:41;16.60;99.90
15131;DHT22;7666;50.920;4.628;2023-05-07T06:44:27;16.50;99.90
15131;DHT22;7666;50.920;4.628;2023-05-07T06:47:13;16.40;99.90
15131;DHT22;7666;50.920;4.628;2023-05-07T06:49:59;16.40;99.90
15131;DHT22;7666;50.920;4.628;2023-05-07T06:52:45;16.30;99.90
15131;DHT22;7666;50.920;4.628;2023-05-07T06:55:31;16.20;99.90
15131;DHT22;7666;50.920;4.628;2023-05-07T06:58:17;16.30;99.90
15131;DHT22;7666;50.920;4.628;2023-05-07T07:01:03;16.30;99.90
15131;DHT22;7666;50.920;4.628;2023-05-07T07:03:49;16.30;99.90
15131;DHT22;7666;50.920;4.628;2023-05-07T07:06:36;16.40;99.90
15131;DHT22;7666;50.920;4.628;2023-05-07T07:09:22;16.40;99.90
15131;DHT22;7666;50.920;4.628;2023-05-07T07:12:08;16.50;99.90
15131;DHT22;7666;50.920;4.628;2023-05-07T07:14:54;16.60;99.90
15131;DHT22;7666;50.920;4.628;2023-05-07T07:17:41;16.70;99.90
15131;DHT22;7666;50.920;4.628;2023-05-07T07:20:27;16.80;99.90
15131;DHT22;7666;50.920;4.628;2023-05-07T07:23:13;16.90;99.90
15131;DHT22;7666;50.920;4.628;2023-05-07T07:25:59;17.00;99.90
15131;DHT22;7666;50.920;4.628;2023-05-07T07:28:46;17.00;99.90
15131;DHT22;7666;50.920;4.628;2023-05-07T07:31:32;17.10;99.90
15131;DHT22;7666;50.920;4.628;2023-05-07T07:34:18;17.10;99.90
15131;DHT22;7666;50.920;4.628;2023-05-07T07:37:04;17.20;99.90
15131;DHT22;7666;50.920;4.628;2023-05-07T07:39:51;17.20;99.90
15131;DHT22;7666;50.920;4.628;2023-05-07T07:42:37;17.20;99.90
15131;DHT22;7666;50.920;4.628;2023-05-07T07:45:23;17.30;99.90
15131;DHT22;7666;50.920;4.628;2023-05-07T07:48:09;17.30;99.90
15131;DHT22;7666;50.920;4.628;2023-05-07T07:50:55;17.30;99.90
15131;DHT22;7666;50.920;4.628;2023-05-07T07:53:41;17.30;99.90
15131;DHT22;7666;50.920;4.628;2023-05-07T07:56:28;17.30;99.90
15131;DHT22;7666;50.920;4.628;2023-05-07T07:59:14;17.20;99.90
15131;DHT22;7666;50.920;4.628;2023-05-07T08:02:03;17.30;99.90
15131;DHT22;7666;50.920;4.628;2023-05-07T08:04:49;17.30;99.90
15131;DHT22;7666;50.920;4.628;2023-05-07T08:07:35;17.20;99.90
15131;DHT22;7666;50.920;4.628;2023-05-07T08:10:21;17.20;99.90
15131;DHT22;7666;50.920;4.628;2023-05-07T08:13:07;17.20;99.90
15131;DHT22;7666;50.920;4.628;2023-05-07T08:15:54;17.20;99.90
15131;DHT22;7666;50.920;4.628;2023-05-07T08:18:40;17.10;99.90
15131;DHT22;7666;50.920;4.628;2023-05-07T08:21:25;17.10;99.90
15131;DHT22;7666;50.920;4.628;2023-05-07T08:24:11;17.10;99.90
15131;DHT22;7666;50.920;4.628;2023-05-07T08:26:57;17.10;99.90
15131;DHT22;7666;50.920;4.628;2023-05-07T08:29:43;17.10;99.90
15131;DHT22;7666;50.920;4.628;2023-05-07T08:32:33;17.10;99.90
15131;DHT22;7666;50.920;4.628;2023-05-07T08:35:19;17.20;99.90
15131;DHT22;7666;50.920;4.628;2023-05-07T08:38:05;17.30;99.90
15131;DHT22;7666;50.920;4.628;2023-05-07T08:40:51;17.40;99.90
15131;DHT22;7666;50.920;4.628;2023-05-07T08:43:38;17.50;99.90
15131;DHT22;7666;50.920;4.628;2023-05-07T08:46:31;17.60;99.90
15131;DHT22;7666;50.920;4.628;2023-05-07T08:49:17;17.70;99.90
15131;DHT22;7666;50.920;4.628;2023-05-07T08:52:03;17.60;99.90
15131;DHT22;7666;50.920;4.628;2023-05-07T08:54:50;17.60;99.90
15131;DHT22;7666;50.920;4.628;2023-05-07T08:57:35;17.60;99.90
15131;DHT22;7666;50.920;4.628;2023-05-07T09:00:22;17.50;99.90
15131;DHT22;7666;50.920;4.628;2023-05-07T09:03:08;17.50;99.90
15131;DHT22;7666;50.920;4.628;2023-05-07T09:05:54;17.50;99.90
15131;DHT22;7666;50.920;4.628;2023-05-07T09:08:40;17.60;99.90
15131;DHT22;7666;50.920;4.628;2023-05-07T09:11:26;17.60;99.90
15131;DHT22;7666;50.920;4.628;2023-05-07T09:14:12;17.50;99.90
15131;DHT22;7666;50.920;4.628;2023-05-07T09:16:58;17.60;99.90
15131;DHT22;7666;50.920;4.628;2023-05-07T09:19:45;17.60;99.90
15131;DHT22;7666;50.920;4.628;2023-05-07T09:22:32;17.60;99.90
15131;DHT22;7666;50.920;4.628;2023-05-07T09:25:28;17.60;99.90
15131;DHT22;7666;50.920;4.628;2023-05-07T09:28:14;17.60;99.90
15131;DHT22;7666;50.920;4.628;2023-05-07T09:31:01;17.60;99.90
15131;DHT22;7666;50.920;4.628;2023-05-07T09:33:46;17.70;99.90
15131;DHT22;7666;50.920;4.628;2023-05-07T09:36:32;17.80;99.90
15131;DHT22;7666;50.920;4.628;2023-05-07T09:39:19;17.80;99.90
15131;DHT22;7666;50.920;4.628;2023-05-07T09:42:05;17.80;99.90
15131;DHT22;7666;50.920;4.628;2023-05-07T09:44:52;17.80;99.90
15131;DHT22;7666;50.920;4.628;2023-05-07T09:47:39;17.80;99.90
15131;DHT22;7666;50.920;4.628;2023-05-07T09:50:35;17.80;99.90
15131;DHT22;7666;50.920;4.628;2023-05-07T09:53:22;17.90;99.90
15131;DHT22;7666;50.920;4.628;2023-05-07T09:56:09;17.90;99.90
15131;DHT22;7666;50.920;4.628;2023-05-07T09:58:59;17.90;99.90
15131;DHT22;7666;50.920;4.628;2023-05-07T10:01:45;17.90;99.90
15131;DHT22;7666;50.920;4.628;2023-05-07T10:04:32;17.90;99.90
15131;DHT22;7666;50.920;4.628;2023-05-07T10:07:18;17.90;99.90
15131;DHT22;7666;50.920;4.628;2023-05-07T10:10:06;17.90;99.90
15131;DHT22;7666;50.920;4.628;2023-05-07T10:12:52;17.90;99.90
15131;DHT22;7666;50.920;4.628;2023-05-07T10:15:40;17.90;99.90
15131;DHT22;7666;50.920;4.628;2023-05-07T10:18:27;18.00;99.90
15131;DHT22;7666;50.920;4.628;2023-05-07T10:21:23;17.90;99.90
15131;DHT22;7666;50.920;4.628;2023-05-07T10:24:12;17.80;99.90
15131;DHT22;7666;50.920;4.628;2023-05-07T10:27:04;17.80;99.90
15131;DHT22;7666;50.920;4.628;2023-05-07T10:29:55;17.80;99.90
15131;DHT22;7666;50.920;4.628;2023-05-07T10:32:49;17.90;99.90
15131;DHT22;7666;50.920;4.628;2023-05-07T10:35:40;17.90;99.90
15131;DHT22;7666;50.920;4.628;2023-05-07T10:38:27;18.00;99.90
15131;DHT22;7666;50.920;4.628;2023-05-07T10:41:14;18.00;99.90
15131;DHT22;7666;50.920;4.628;2023-05-07T10:44:02;18.10;99.90
15131;DHT22;7666;50.920;4.628;2023-05-07T10:52:36;18.20;99.90
15131;DHT22;7666;50.920;4.628;2023-05-07T10:55:23;18.30;99.90
15131;DHT22;7666;50.920;4.628;2023-05-07T10:58:29;18.30;99.90
15131;DHT22;7666;50.920;4.628;2023-05-07T11:01:28;18.40;99.90
15131;DHT22;7666;50.920;4.628;2023-05-07T11:04:24;18.30;99.90
15131;DHT22;7666;50.920;4.628;2023-05-07T11:07:23;18.30;99.90
15131;DHT22;7666;50.920;4.628;2023-05-07T11:10:10;18.30;99.90
15131;DHT22;7666;50.920;4.628;2023-05-07T11:12:56;18.30;99.90
15131;DHT22;7666;50.920;4.628;2023-05-07T11:15:44;18.50;99.90
15131;DHT22;7666;50.920;4.628;2023-05-07T11:18:47;18.50;99.90
15131;DHT22;7666;50.920;4.628;2023-05-07T11:21:38;18.70;99.90
15131;DHT22;7666;50.920;4.628;2023-05-07T11:24:24;18.70;99.90
15131;DHT22;7666;50.920;4.628;2023-05-07T11:27:11;18.70;99.90
15131;DHT22;7666;50.920;4.628;2023-05-07T11:29:57;18.70;99.90
15131;DHT22;7666;50.920;4.628;2023-05-07T11:32:44;18.70;99.90
15131;DHT22;7666;50.920;4.628;2023-05-07T11:35:33;18.80;99.90
15131;DHT22;7666;50.920;4.628;2023-05-07T11:38:19;18.80;99.90
15131;DHT22;7666;50.920;4.628;2023-05-07T11:41:05;18.80;99.90
15131;DHT22;7666;50.920;4.628;2023-05-07T11:43:59;18.80;99.90
15131;DHT22;7666;50.920;4.628;2023-05-07T11:46:45;18.80;99.90
15131;DHT22;7666;50.920;4.628;2023-05-07T11:49:31;18.80;99.90
15131;DHT22;7666;50.920;4.628;2023-05-07T11:52:18;18.90;99.90
15131;DHT22;7666;50.920;4.628;2023-05-07T11:55:05;18.90;99.90
15131;DHT22;7666;50.920;4.628;2023-05-07T11:57:51;18.90;99.90
15131;DHT22;7666;50.920;4.628;2023-05-07T12:00:37;19.00;99.90
15131;DHT22;7666;50.920;4.628;2023-05-07T12:03:23;19.10;99.90
15131;DHT22;7666;50.920;4.628;2023-05-07T12:06:10;19.10;99.90
15131;DHT22;7666;50.920;4.628;2023-05-07T12:08:56;19.20;99.90
15131;DHT22;7666;50.920;4.628;2023-05-07T12:11:45;19.30;99.90
15131;DHT22;7666;50.920;4.628;2023-05-07T12:14:31;19.40;99.90
15131;DHT22;7666;50.920;4.628;2023-05-07T12:17:18;19.50;99.90
15131;DHT22;7666;50.920;4.628;2023-05-07T12:20:05;19.60;99.90
15131;DHT22;7666;50.920;4.628;2023-05-07T12:22:51;19.60;99.90
15131;DHT22;7666;50.920;4.628;2023-05-07T12:25:38;19.60;99.90
15131;DHT22;7666;50.920;4.628;2023-05-07T12:28:25;19.60;99.90
15131;DHT22;7666;50.920;4.628;2023-05-07T12:31:11;19.60;99.90
15131;DHT22;7666;50.920;4.628;2023-05-07T12:34:00;19.60;99.90
15131;DHT22;7666;50.920;4.628;2023-05-07T12:36:48;19.70;99.90
15131;DHT22;7666;50.920;4.628;2023-05-07T12:39:34;19.70;99.90
15131;DHT22;7666;50.920;4.628;2023-05-07T12:42:20;19.80;99.90
15131;DHT22;7666;50.920;4.628;2023-05-07T12:45:13;19.90;99.90
15131;DHT22;7666;50.920;4.628;2023-05-07T12:48:04;19.80;99.90
15131;DHT22;7666;50.920;4.628;2023-05-07T12:50:50;19.80;99.90
15131;DHT22;7666;50.920;4.628;2023-05-07T12:53:40;19.80;99.90
15131;DHT22;7666;50.920;4.628;2023-05-07T12:56:31;19.70;99.90
15131;DHT22;7666;50.920;4.628;2023-05-07T12:59:17;19.60;99.90
15131;DHT22;7666;50.920;4.628;2023-05-07T13:02:03;19.60;99.90
15131;DHT22;7666;50.920;4.628;2023-05-07T13:04:49;19.60;99.90
15131;DHT22;7666;50.920;4.628;2023-05-07T13:07:35;19.60;99.90
15131;DHT22;7666;50.920;4.628;2023-05-07T13:10:23;19.60;99.90
15131;DHT22;7666;50.920;4.628;2023-05-07T13:13:09;19.70;99.90
15131;DHT22;7666;50.920;4.628;2023-05-07T13:15:55;19.70;99.90
15131;DHT22;7666;50.920;4.628;2023-05-07T13:18:41;19.80;99.90
15131;DHT22;7666;50.920;4.628;2023-05-07T13:21:29;19.80;99.90
15131;DHT22;7666;50.920;4.628;2023-05-07T13:24:17;19.80;99.90
15131;DHT22;7666;50.920;4.628;2023-05-07T13:27:03;19.80;99.90
15131;DHT22;7666;50.920;4.628;2023-05-07T13:29:49;19.80;99.90
15131;DHT22;7666;50.920;4.628;2023-05-07T13:32:35;19.90;99.90
15131;DHT22;7666;50.920;4.628;2023-05-07T13:35:21;20.00;99.90
15131;DHT22;7666;50.920;4.628;2023-05-07T13:38:07;19.90;99.90
15131;DHT22;7666;50.920;4.628;2023-05-07T13:40:53;20.00;99.90
15131;DHT22;7666;50.920;4.628;2023-05-07T13:43:39;20.10;99.90
15131;DHT22;7666;50.920;4.628;2023-05-07T13:46:25;20.10;99.90
15131;DHT22;7666;50.920;4.628;2023-05-07T13:49:11;20.10;99.90
15131;DHT22;7666;50.920;4.628;2023-05-07T13:51:58;20.10;99.90
15131;DHT22;7666;50.920;4.628;2023-05-07T13:54:44;20.20;99.90
15131;DHT22;7666;50.920;4.628;2023-05-07T13:57:30;20.10;99.90
15131;DHT22;7666;50.920;4.628;2023-05-07T14:00:16;20.10;99.90
15131;DHT22;7666;50.920;4.628;2023-05-07T14:03:04;20.10;99.90
15131;DHT22;7666;50.920;4.628;2023-05-07T14:05:50;20.10;99.90
15131;DHT22;7666;50.920;4.628;2023-05-07T14:08:36;20.20;99.90
15131;DHT22;7666;50.920;4.628;2023-05-07T14:11:22;20.00;99.90
15131;DHT22;7666;50.920;4.628;2023-05-07T14:14:08;19.90;99.90
15131;DHT22;7666;50.920;4.628;2023-05-07T14:16:56;19.90;99.90
15131;DHT22;7666;50.920;4.628;2023-05-07T14:19:42;19.80;99.90
15131;DHT22;7666;50.920;4.628;2023-05-07T14:22:28;19.90;99.90
15131;DHT22;7666;50.920;4.628;2023-05-07T14:25:15;19.90;99.90
15131;DHT22;7666;50.920;4.628;2023-05-07T14:28:01;20.00;99.90
15131;DHT22;7666;50.920;4.628;2023-05-07T14:30:47;20.00;99.90
15131;DHT22;7666;50.920;4.628;2023-05-07T14:33:33;20.10;99.90
15131;DHT22;7666;50.920;4.628;2023-05-07T14:36:19;20.00;99.90
15131;DHT22;7666;50.920;4.628;2023-05-07T14:39:06;20.00;99.90
15131;DHT22;7666;50.920;4.628;2023-05-07T14:41:52;20.00;99.90
15131;DHT22;7666;50.920;4.628;2023-05-07T14:44:40;20.00;99.90
15131;DHT22;7666;50.920;4.628;2023-05-07T14:47:27;20.00;99.90
15131;DHT22;7666;50.920;4.628;2023-05-07T14:50:13;20.00;99.90
15131;DHT22;7666;50.920;4.628;2023-05-07T14:52:59;20.00;99.90
15131;DHT22;7666;50.920;4.628;2023-05-07T14:55:45;20.00;99.90
15131;DHT22;7666;50.920;4.628;2023-05-07T14:58:31;20.00;99.90
15131;DHT22;7666;50.920;4.628;2023-05-07T15:01:17;20.00;99.90
15131;DHT22;7666;50.920;4.628;2023-05-07T15:04:04;20.00;99.90
15131;DHT22;7666;50.920;4.628;2023-05-07T15:06:50;20.00;99.90
15131;DHT22;7666;50.920;4.628;2023-05-07T15:09:36;20.00;99.90
15131;DHT22;7666;50.920;4.628;2023-05-07T15:12:22;20.00;99.90
15131;DHT22;7666;50.920;4.628;2023-05-07T15:15:08;19.90;99.90
15131;DHT22;7666;50.920;4.628;2023-05-07T15:17:54;19.90;99.90
15131;DHT22;7666;50.920;4.628;2023-05-07T15:20:41;19.80;99.90
15131;DHT22;7666;50.920;4.628;2023-05-07T15:23:27;19.70;99.90
15131;DHT22;7666;50.920;4.628;2023-05-07T15:26:13;19.60;99.90
15131;DHT22;7666;50.920;4.628;2023-05-07T15:28:59;19.50;99.90
15131;DHT22;7666;50.920;4.628;2023-05-07T15:31:45;19.40;99.90
15131;DHT22;7666;50.920;4.628;2023-05-07T15:34:31;19.40;99.90
15131;DHT22;7666;50.920;4.628;2023-05-07T15:37:17;19.30;99.90
15131;DHT22;7666;50.920;4.628;2023-05-07T15:40:04;19.30;99.90
15131;DHT22;7666;50.920;4.628;2023-05-07T15:42:54;19.30;99.90
15131;DHT22;7666;50.920;4.628;2023-05-07T15:45:42;19.40;99.90
15131;DHT22;7666;50.920;4.628;2023-05-07T15:48:28;19.30;99.90
15131;DHT22;7666;50.920;4.628;2023-05-07T15:51:14;19.30;99.90
15131;DHT22;7666;50.920;4.628;2023-05-07T15:54:00;19.30;99.90
15131;DHT22;7666;50.920;4.628;2023-05-07T15:56:47;19.20;99.90
15131;DHT22;7666;50.920;4.628;2023-05-07T15:59:33;19.30;99.90
15131;DHT22;7666;50.920;4.628;2023-05-07T16:02:19;19.30;99.90
15131;DHT22;7666;50.920;4.628;2023-05-07T16:05:06;19.40;99.90
15131;DHT22;7666;50.920;4.628;2023-05-07T16:07:55;19.30;99.90
15131;DHT22;7666;50.920;4.628;2023-05-07T16:10:41;19.30;99.90
15131;DHT22;7666;50.920;4.628;2023-05-07T16:13:27;19.20;99.90
15131;DHT22;7666;50.920;4.628;2023-05-07T16:16:13;19.20;99.90
15131;DHT22;7666;50.920;4.628;2023-05-07T16:19:00;19.20;99.90
15131;DHT22;7666;50.920;4.628;2023-05-07T16:21:46;19.10;99.90
15131;DHT22;7666;50.920;4.628;2023-05-07T16:24:32;19.10;99.90
15131;DHT22;7666;50.920;4.628;2023-05-07T16:27:18;19.10;99.90
15131;DHT22;7666;50.920;4.628;2023-05-07T16:30:05;19.10;99.90
15131;DHT22;7666;50.920;4.628;2023-05-07T16:32:51;19.10;99.90
15131;DHT22;7666;50.920;4.628;2023-05-07T16:35:37;19.10;99.90
15131;DHT22;7666;50.920;4.628;2023-05-07T16:38:23;19.10;99.90
15131;DHT22;7666;50.920;4.628;2023-05-07T16:41:09;19.10;99.90
15131;DHT22;7666;50.920;4.628;2023-05-07T16:43:55;19.10;99.90
15131;DHT22;7666;50.920;4.628;2023-05-07T16:46:42;19.10;99.90
15131;DHT22;7666;50.920;4.628;2023-05-07T16:49:28;19.20;99.90
15131;DHT22;7666;50.920;4.628;2023-05-07T16:52:14;19.20;99.90
15131;DHT22;7666;50.920;4.628;2023-05-07T16:55:00;19.10;99.90
15131;DHT22;7666;50.920;4.628;2023-05-07T16:57:46;19.20;99.90
15131;DHT22;7666;50.920;4.628;2023-05-07T17:00:32;19.20;99.90
15131;DHT22;7666;50.920;4.628;2023-05-07T17:03:18;19.20;99.90
15131;DHT22;7666;50.920;4.628;2023-05-07T17:06:04;19.20;99.90
15131;DHT22;7666;50.920;4.628;2023-05-07T17:08:57;19.20;99.90
15131;DHT22;7666;50.920;4.628;2023-05-07T17:11:43;19.10;99.90
15131;DHT22;7666;50.920;4.628;2023-05-07T17:14:29;19.10;99.90
15131;DHT22;7666;50.920;4.628;2023-05-07T17:17:15;19.10;99.90
15131;DHT22;7666;50.920;4.628;2023-05-07T17:20:01;19.20;99.90
15131;DHT22;7666;50.920;4.628;2023-05-07T17:22:47;19.20;99.90
15131;DHT22;7666;50.920;4.628;2023-05-07T17:25:34;19.10;99.90
15131;DHT22;7666;50.920;4.628;2023-05-07T17:28:21;19.10;99.90
15131;DHT22;7666;50.920;4.628;2023-05-07T17:31:07;19.00;99.90
15131;DHT22;7666;50.920;4.628;2023-05-07T17:33:53;19.00;99.90
15131;DHT22;7666;50.920;4.628;2023-05-07T17:36:39;19.00;99.90
15131;DHT22;7666;50.920;4.628;2023-05-07T17:39:25;18.90;99.90
15131;DHT22;7666;50.920;4.628;2023-05-07T17:42:11;18.90;99.90
15131;DHT22;7666;50.920;4.628;2023-05-07T17:44:57;18.80;99.90
15131;DHT22;7666;50.920;4.628;2023-05-07T17:47:43;18.80;99.90
15131;DHT22;7666;50.920;4.628;2023-05-07T17:50:29;18.80;99.90
15131;DHT22;7666;50.920;4.628;2023-05-07T17:53:15;18.70;99.90
15131;DHT22;7666;50.920;4.628;2023-05-07T17:56:01;18.60;99.90